Time;durP1;ratioP1;P1;durP2;ratioP2;P2;SDS_P1;SDS_P2;PMS_P1;PMS_P2;Temp;Humidity;BMP_temperature;BMP_pressure;BME280_temperature;BME280_humidity;BME280_pressure;Samples;Min_cycle;Max_cycle;Signal;HPM_P1;HPM_P2
2022/08/26 00:01:02;;;;;;;;;;;;;;;27.73;52.38;99254.84;4480185;32;34329;-62
2022/08/26 00:03:30;;;;;;;;;;;;;;;27.75;52.30;99247.22;4474872;32;32695;-62
2022/08/26 00:05:57;;;;;;;;;;;;;;;27.71;52.46;99251.53;4467039;32;33211;-62
2022/08/26 00:08:25;;;;;;;;;;;;;;;27.75;52.20;99247.22;4470548;31;34019;-63
2022/08/26 00:10:52;;;;;;;;;;;;;;;27.74;52.15;99257.38;4474384;32;34433;-62
2022/08/26 00:13:20;;;;;;;;;;;;;;;27.73;52.10;99252.09;4474175;31;32577;-62
2022/08/26 00:15:49;;;;;;;;;;;;;;;27.53;52.76;99252.44;4467855;32;31676;-62
2022/08/26 00:18:17;;;;;;;;;;;;;;;27.58;52.53;99245.16;4479186;32;33696;-63
2022/08/26 00:20:49;;;;;;;;;;;;;;;27.44;52.88;99251.94;4478396;32;35520;-62
2022/08/26 00:23:16;;;;;;;;;;;;;;;27.57;52.57;99248.13;4483110;32;34270;-63
2022/08/26 00:25:44;;;;;;;;;;;;;;;27.53;52.81;99244.19;4480219;32;33411;-63
2022/08/26 00:28:11;;;;;;;;;;;;;;;27.46;52.93;99249.81;4476802;32;32479;-62
2022/08/26 00:30:40;;;;;;;;;;;;;;;27.50;52.77;99250.16;4476128;32;34573;-63
2022/08/26 00:33:08;;;;;;;;;;;;;;;27.33;53.19;99250.03;4480076;32;34149;-63
2022/08/26 00:35:36;;;;;;;;;;;;;;;27.23;53.46;99244.28;4483278;32;33006;-63
2022/08/26 00:38:10;;;;;;;;;;;;;;;27.32;53.11;99248.34;4478219;32;34405;-65
2022/08/26 00:40:41;;;;;;;;;;;;;;;26.99;54.03;99241.41;4482026;32;33964;-65
2022/08/26 00:43:09;;;;;;;;;;;;;;;27.20;53.48;99242.84;4474120;32;33833;-65
2022/08/26 00:45:39;;;;;;;;;;;;;;;27.18;53.61;99237.56;4478319;32;34470;-64
2022/08/26 00:48:07;;;;;;;;;;;;;;;27.14;53.81;99235.53;4471075;32;34183;-64
2022/08/26 00:50:39;;;;;;;;;;;;;;;27.17;53.58;99235.91;4479006;32;34053;-64
2022/08/26 00:53:20;;;;;;;;;;;;;;;27.18;53.48;99236.72;4476408;32;34750;-64
2022/08/26 00:56:04;;;;;;;;;;;;;;;27.12;53.63;99235.72;4483595;32;33107;-64
2022/08/26 00:58:32;;;;;;;;;;;;;;;27.05;53.71;99229.50;4479542;32;34066;-64
2022/08/26 01:01:00;;;;;;;;;;;;;;;26.95;53.98;99227.31;4480509;32;34133;-65
2022/08/26 01:03:28;;;;;;;;;;;;;;;27.04;53.68;99225.09;4479362;32;34342;-64
2022/08/26 01:05:56;;;;;;;;;;;;;;;26.86;54.28;99234.22;4478812;32;33270;-62
2022/08/26 01:08:23;;;;;;;;;;;;;;;26.87;54.27;99226.81;4481136;32;35307;-62
2022/08/26 01:10:51;;;;;;;;;;;;;;;26.93;54.08;99228.63;4479025;32;34431;-64
2022/08/26 01:13:22;;;;;;;;;;;;;;;26.82;54.46;99229.44;4479081;32;32873;-63
2022/08/26 01:15:51;;;;;;;;;;;;;;;26.70;54.64;99224.72;4472674;32;34015;-64
2022/08/26 01:18:19;;;;;;;;;;;;;;;26.74;54.62;99233.31;4471561;32;33907;-64
2022/08/26 01:20:49;;;;;;;;;;;;;;;26.46;55.26;99225.66;4475624;31;33957;-64
2022/08/26 01:23:17;;;;;;;;;;;;;;;26.47;55.21;99230.06;4481007;32;33905;-64
2022/08/26 01:25:50;;;;;;;;;;;;;;;26.32;55.73;99229.63;4474803;32;32186;-64
2022/08/26 01:28:20;;;;;;;;;;;;;;;26.17;56.12;99225.38;4473775;32;34114;-64
2022/08/26 01:30:48;;;;;;;;;;;;;;;26.14;56.37;99228.56;4478596;32;34313;-64
2022/08/26 01:33:16;;;;;;;;;;;;;;;26.32;55.74;99221.38;4469221;32;33900;-64
2022/08/26 01:35:45;;;;;;;;;;;;;;;26.34;55.66;99228.31;4475766;32;33562;-64
2022/08/26 01:38:15;;;;;;;;;;;;;;;26.39;55.42;99220.25;4476280;32;35263;-64
2022/08/26 01:40:42;;;;;;;;;;;;;;;26.37;55.51;99229.78;4484556;32;34267;-64
2022/08/26 01:43:13;;;;;;;;;;;;;;;26.49;55.02;99222.47;4470940;32;33850;-64
2022/08/26 01:45:41;;;;;;;;;;;;;;;26.54;54.79;99228.09;4480667;32;33457;-64
2022/08/26 01:48:10;;;;;;;;;;;;;;;26.50;54.69;99217.84;4475689;32;35106;-63
2022/08/26 01:50:38;;;;;;;;;;;;;;;26.29;55.18;99216.34;4475551;32;34270;-63
2022/08/26 01:53:06;;;;;;;;;;;;;;;26.20;55.29;99222.16;4459969;32;32070;-64
2022/08/26 01:55:35;;;;;;;;;;;;;;;26.15;55.55;99226.66;4481388;32;33413;-63
2022/08/26 01:58:16;;;;;;;;;;;;;;;26.22;55.37;99221.94;4475746;32;34088;-63
2022/08/26 02:00:45;;;;;;;;;;;;;;;26.14;55.60;99225.81;4467626;32;32659;-62
2022/08/26 02:03:15;;;;;;;;;;;;;;;26.28;55.13;99218.25;4481736;32;34076;-62
2022/08/26 02:05:43;;;;;;;;;;;;;;;26.18;55.40;99221.53;4460833;32;31939;-62
2022/08/26 02:08:16;;;;;;;;;;;;;;;26.23;55.21;99220.88;4479702;32;34961;-63
2022/08/26 02:10:52;;;;;;;;;;;;;;;26.33;55.01;99225.81;4483417;32;34287;-63
2022/08/26 02:13:21;;;;;;;;;;;;;;;26.28;55.12;99215.53;4482847;32;33675;-63
2022/08/26 02:15:50;;;;;;;;;;;;;;;26.24;55.27;99215.16;4475171;32;33373;-63
2022/08/26 02:18:18;;;;;;;;;;;;;;;26.31;54.93;99215.06;4470949;32;35100;-63
2022/08/26 02:20:46;;;;;;;;;;;;;;;26.29;54.83;99219.09;4482427;32;33772;-63
2022/08/26 02:23:17;;;;;;;;;;;;;;;26.16;55.07;99215.47;4480666;32;34002;-63
2022/08/26 02:25:52;;;;;;;;;;;;;;;26.07;55.23;99216.84;4482971;32;33102;-63
2022/08/26 02:28:20;;;;;;;;;;;;;;;26.01;55.30;99215.00;4471415;32;34114;-62
2022/08/26 02:30:53;;;;;;;;;;;;;;;25.92;55.54;99222.69;4477273;32;35982;-62
2022/08/26 02:33:21;;;;;;;;;;;;;;;25.74;55.81;99220.72;4481451;32;33701;-62
2022/08/26 02:35:49;;;;;;;;;;;;;;;25.87;55.51;99216.19;4478317;32;33201;-63
2022/08/26 02:38:17;;;;;;;;;;;;;;;26.00;55.12;99219.66;4482759;32;33800;-62
2022/08/26 02:40:44;;;;;;;;;;;;;;;25.99;55.07;99217.13;4478215;32;33848;-63
2022/08/26 02:43:14;;;;;;;;;;;;;;;26.07;54.70;99216.84;4477522;32;32196;-64
2022/08/26 02:45:41;;;;;;;;;;;;;;;26.06;54.63;99217.88;4480763;32;33469;-64
2022/08/26 02:48:10;;;;;;;;;;;;;;;26.01;54.86;99217.75;4480954;32;34905;-64
2022/08/26 02:50:38;;;;;;;;;;;;;;;25.94;55.12;99214.22;4476806;32;34084;-63
2022/08/26 02:53:06;;;;;;;;;;;;;;;25.93;55.20;99218.03;4480563;32;33094;-63
2022/08/26 02:55:34;;;;;;;;;;;;;;;25.96;55.16;99212.09;4481433;32;33567;-64
2022/08/26 02:58:01;;;;;;;;;;;;;;;25.98;55.16;99215.47;4475945;32;34852;-64
2022/08/26 03:00:30;;;;;;;;;;;;;;;25.87;55.55;99214.28;4480890;32;33815;-64
2022/08/26 03:02:57;;;;;;;;;;;;;;;25.92;55.39;99217.19;4481296;32;34182;-64
2022/08/26 03:05:25;;;;;;;;;;;;;;;25.96;55.27;99217.59;4480513;32;33115;-63
2022/08/26 03:07:52;;;;;;;;;;;;;;;25.80;55.58;99210.75;4479345;32;33874;-63
2022/08/26 03:10:20;;;;;;;;;;;;;;;25.77;55.68;99206.56;4483270;32;33171;-63
2022/08/26 03:12:47;;;;;;;;;;;;;;;25.76;55.77;99206.81;4481691;32;32608;-62
2022/08/26 03:15:15;;;;;;;;;;;;;;;25.75;55.79;99207.87;4479239;32;31647;-62
2022/08/26 03:17:45;;;;;;;;;;;;;;;25.81;55.61;99203.41;4477764;32;34076;-62
2022/08/26 03:20:12;;;;;;;;;;;;;;;25.76;55.49;99198.56;4476589;32;33803;-62
2022/08/26 03:22:43;;;;;;;;;;;;;;;25.70;55.58;99202.22;4481027;32;34547;-62
2022/08/26 03:25:12;;;;;;;;;;;;;;;25.69;55.55;99198.66;4482187;32;34530;-63
2022/08/26 03:27:41;;;;;;;;;;;;;;;25.75;55.49;99202.41;4476494;32;34478;-63
2022/08/26 03:32:55;;;;;;;;;;;;;;;25.83;55.41;99201.28;4478734;32;35227;-63
2022/08/26 03:35:24;;;;;;;;;;;;;;;25.76;55.40;99193.09;4481551;32;34394;-63
2022/08/26 03:37:52;;;;;;;;;;;;;;;25.81;55.19;99198.78;4472945;32;33922;-63
2022/08/26 03:40:19;;;;;;;;;;;;;;;25.66;55.76;99196.34;4471610;32;32846;-62
2022/08/26 03:42:48;;;;;;;;;;;;;;;25.76;55.28;99201.31;4483051;32;33733;-62
2022/08/26 03:45:16;;;;;;;;;;;;;;;25.67;55.65;99195.28;4479224;32;32950;-62
2022/08/26 03:47:44;;;;;;;;;;;;;;;25.62;55.73;99203.38;4473711;32;34296;-62
2022/08/26 03:50:15;;;;;;;;;;;;;;;25.73;55.49;99194.38;4478098;32;35186;-62
2022/08/26 03:52:50;;;;;;;;;;;;;;;25.74;55.38;99197.97;4476669;31;35262;-62
2022/08/26 03:55:17;;;;;;;;;;;;;;;25.63;55.92;99205.03;4479370;32;33125;-62
2022/08/26 03:57:50;;;;;;;;;;;;;;;25.59;56.09;99194.75;4474881;32;34585;-63
2022/08/26 04:00:17;;;;;;;;;;;;;;;25.70;55.67;99196.75;4477784;32;34098;-63
2022/08/26 04:02:47;;;;;;;;;;;;;;;25.75;55.59;99195.00;4476712;31;32758;-63
2022/08/26 04:05:16;;;;;;;;;;;;;;;25.84;55.36;99198.28;4481286;32;34021;-63
2022/08/26 04:07:44;;;;;;;;;;;;;;;25.69;55.69;99189.59;4475318;31;34055;-63
2022/08/26 04:10:12;;;;;;;;;;;;;;;25.69;55.58;99184.94;4478384;32;35277;-63
2022/08/26 04:12:41;;;;;;;;;;;;;;;25.75;55.41;99191.44;4476527;32;33644;-63
2022/08/26 04:15:10;;;;;;;;;;;;;;;25.72;55.61;99198.19;4472350;32;32886;-63
2022/08/26 04:17:37;;;;;;;;;;;;;;;25.74;55.44;99195.22;4474434;32;34305;-67
2022/08/26 04:20:05;;;;;;;;;;;;;;;25.81;55.31;99203.41;4473691;31;34344;-64
2022/08/26 04:22:33;;;;;;;;;;;;;;;25.86;55.12;99198.91;4478857;32;33987;-64
2022/08/26 04:25:01;;;;;;;;;;;;;;;25.89;54.94;99205.84;4479380;31;33235;-64
2022/08/26 04:27:28;;;;;;;;;;;;;;;25.88;54.73;99198.72;4480193;32;34198;-64
2022/08/26 04:29:56;;;;;;;;;;;;;;;25.88;54.78;99198.72;4474977;31;35107;-64
2022/08/26 04:32:24;;;;;;;;;;;;;;;25.90;54.66;99196.56;4476146;32;34346;-64
2022/08/26 04:34:51;;;;;;;;;;;;;;;25.88;54.67;99207.75;4477295;31;33693;-64
2022/08/26 04:37:18;;;;;;;;;;;;;;;25.88;54.74;99204.19;4477883;32;34205;-64
2022/08/26 04:39:51;;;;;;;;;;;;;;;25.88;54.60;99202.28;4472891;32;34146;-64
2022/08/26 04:42:18;;;;;;;;;;;;;;;25.85;54.79;99199.16;4473822;32;35293;-64
2022/08/26 04:44:52;;;;;;;;;;;;;;;25.72;55.27;99197.38;4478934;32;32307;-64
2022/08/26 04:47:19;;;;;;;;;;;;;;;25.75;55.17;99202.41;4474547;32;34796;-64
2022/08/26 04:49:47;;;;;;;;;;;;;;;25.83;55.07;99201.28;4477119;32;33852;-64
2022/08/26 04:52:14;;;;;;;;;;;;;;;25.97;54.77;99206.41;4474712;31;33469;-64
2022/08/26 04:54:42;;;;;;;;;;;;;;;26.08;54.53;99204.78;4472429;32;33407;-64
2022/08/26 04:57:09;;;;;;;;;;;;;;;26.18;54.41;99201.53;4477598;31;34223;-64
2022/08/26 04:59:37;;;;;;;;;;;;;;;26.14;54.41;99206.63;4480239;32;32808;-64
2022/08/26 05:02:05;;;;;;;;;;;;;;;26.32;54.03;99210.41;4469363;32;35148;-64
2022/08/26 05:04:33;;;;;;;;;;;;;;;26.34;54.19;99209.13;4472057;32;33095;-64
2022/08/26 05:07:00;;;;;;;;;;;;;;;26.45;53.95;99216.59;4478949;32;33962;-63
2022/08/26 05:09:29;;;;;;;;;;;;;;;26.68;53.61;99204.91;4475077;31;31873;-64
2022/08/26 05:11:56;;;;;;;;;;;;;;;27.21;52.15;99205.22;4474845;32;33795;-64
2022/08/26 05:14:25;;;;;;;;;;;;;;;27.51;51.04;99208.72;4472705;31;31953;-64
2022/08/26 05:16:52;;;;;;;;;;;;;;;27.49;51.02;99208.13;4476606;32;33558;-64
2022/08/26 05:19:20;;;;;;;;;;;;;;;27.38;51.74;99211.66;4475297;31;32964;-62
2022/08/26 05:21:48;;;;;;;;;;;;;;;27.62;51.56;99209.78;4476486;32;35344;-62
2022/08/26 05:24:15;;;;;;;;;;;;;;;27.83;51.13;99203.75;4468206;31;32301;-63
2022/08/26 05:26:44;;;;;;;;;;;;;;;28.05;50.83;99205.84;4472857;32;32785;-62
2022/08/26 05:29:11;;;;;;;;;;;;;;;28.12;50.72;99211.22;4478251;31;33847;-63
2022/08/26 05:31:39;;;;;;;;;;;;;;;28.05;51.01;99208.59;4475768;32;34195;-63
2022/08/26 05:34:06;;;;;;;;;;;;;;;28.13;50.82;99210.16;4474538;32;33588;-63
2022/08/26 05:36:35;;;;;;;;;;;;;;;28.33;50.10;99205.91;4476513;31;34292;-66
2022/08/26 05:39:03;;;;;;;;;;;;;;;28.46;48.90;99212.25;4466609;32;33080;-65
2022/08/26 05:41:32;;;;;;;;;;;;;;;28.70;48.02;99205.56;4478585;31;33223;-64
2022/08/26 05:44:04;;;;;;;;;;;;;;;29.23;46.74;99206.28;4475744;32;32875;-64
2022/08/26 05:46:32;;;;;;;;;;;;;;;29.65;44.88;99208.63;4477148;31;34970;-64
2022/08/26 05:49:00;;;;;;;;;;;;;;;29.99;43.88;99211.34;4473220;32;32857;-62
2022/08/26 05:51:28;;;;;;;;;;;;;;;30.10;44.10;99213.97;4477192;31;33627;-62
2022/08/26 05:53:57;;;;;;;;;;;;;;;30.23;43.50;99207.28;4476329;32;33064;-62
2022/08/26 05:56:26;;;;;;;;;;;;;;;30.36;44.09;99211.56;4479031;31;34295;-62
2022/08/26 05:58:54;;;;;;;;;;;;;;;30.26;44.48;99208.69;4476326;32;33902;-61
2022/08/26 06:01:25;;;;;;;;;;;;;;;30.21;44.24;99212.22;4475460;32;34337;-61
2022/08/26 06:03:54;;;;;;;;;;;;;;;30.05;45.16;99210.31;4479244;31;33123;-62
2022/08/26 06:06:23;;;;;;;;;;;;;;;29.81;45.87;99210.53;4473857;32;35169;-62
2022/08/26 06:08:57;;;;;;;;;;;;;;;29.77;45.96;99211.31;4474620;31;34848;-62
2022/08/26 06:11:25;;;;;;;;;;;;;;;29.76;46.28;99220.66;4476173;32;34057;-63
2022/08/26 06:13:53;;;;;;;;;;;;;;;29.78;46.21;99218.47;4474289;31;34257;-62
2022/08/26 06:16:22;;;;;;;;;;;;;;;29.79;46.11;99225.66;4472434;32;32894;-62
2022/08/26 06:18:50;;;;;;;;;;;;;;;29.75;46.57;99227.25;4474690;31;34553;-62
2022/08/26 06:21:17;;;;;;;;;;;;;;;29.66;46.07;99224.94;4477459;32;35075;-62
2022/08/26 06:26:32;;;;;;;;;;;;;;;29.53;44.76;99222.47;4467509;32;33917;-62
2022/08/26 06:29:00;;;;;;;;;;;;;;;29.51;44.43;99224.66;4479240;32;34317;-62
2022/08/26 06:31:33;;;;;;;;;;;;;;;29.53;44.14;99225.22;4477552;32;31974;-61
2022/08/26 06:34:01;;;;;;;;;;;;;;;29.55;44.78;99227.75;4474840;32;33212;-62
2022/08/26 06:36:36;;;;;;;;;;;;;;;29.53;43.68;99227.16;4479142;31;34365;-61
2022/08/26 06:39:05;;;;;;;;;;;;;;;29.61;44.16;99226.78;4479442;32;36106;-61
2022/08/26 06:41:33;;;;;;;;;;;;;;;29.58;44.52;99228.06;4481126;31;35030;-61
2022/08/26 06:44:01;;;;;;;;;;;;;;;29.48;45.00;99225.16;4476859;32;33129;-60
2022/08/26 06:46:28;;;;;;;;;;;;;;;29.45;41.38;99234.75;4480631;31;34902;-62
2022/08/26 06:48:59;;;;;;;;;;;;;;;29.61;41.37;99226.78;4480199;32;35372;-61
2022/08/26 06:51:27;;;;;;;;;;;;;;;29.44;42.03;99226.75;4472482;32;35218;-60
2022/08/26 06:53:58;;;;;;;;;;;;;;;29.36;41.66;99228.00;4472192;32;34005;-61
2022/08/26 06:56:28;;;;;;;;;;;;;;;29.30;41.49;99223.47;4471333;32;34786;-61
2022/08/26 06:58:56;;;;;;;;;;;;;;;29.59;41.51;99220.62;4464799;32;33570;-61
2022/08/26 07:01:24;;;;;;;;;;;;;;;29.32;41.37;99220.47;4465942;32;33103;-62
2022/08/26 07:03:53;;;;;;;;;;;;;;;28.97;41.90;99227.81;4475422;31;33690;-61
2022/08/26 07:06:24;;;;;;;;;;;;;;;29.15;40.83;99228.72;4473443;32;34073;-61
2022/08/26 07:08:52;;;;;;;;;;;;;;;28.78;41.25;99224.44;4476113;31;34841;-61
2022/08/26 07:11:20;;;;;;;;;;;;;;;28.65;38.19;99227.50;4481001;32;34166;-62
2022/08/26 07:13:48;;;;;;;;;;;;;;;28.98;37.17;99223.16;4479892;31;33270;-60
2022/08/26 07:16:18;;;;;;;;;;;;;;;28.84;38.13;99217.13;4481468;32;32754;-60
2022/08/26 07:18:45;;;;;;;;;;;;;;;28.88;37.63;99217.47;4473994;31;34515;-62
2022/08/26 07:21:14;;;;;;;;;;;;;;;29.21;36.74;99219.44;4475864;32;34272;-62
2022/08/26 07:23:41;;;;;;;;;;;;;;;29.11;37.13;99224.78;4480443;31;33388;-62
2022/08/26 07:26:15;;;;;;;;;;;;;;;28.98;37.89;99226.75;4480414;32;34526;-61
2022/08/26 07:28:43;;;;;;;;;;;;;;;28.86;38.61;99223.22;4474792;32;32605;-61
2022/08/26 07:31:11;;;;;;;;;;;;;;;29.09;36.79;99221.47;4477985;31;34053;-61
2022/08/26 07:33:39;;;;;;;;;;;;;;;28.92;37.85;99224.97;4476383;32;198762;-63
2022/08/26 07:36:07;;;;;;;;;;;;;;;29.29;37.12;99215.47;4481802;32;32941;-61
2022/08/26 07:38:35;;;;;;;;;;;;;;;29.04;37.46;99215.84;4478053;32;33904;-62
2022/08/26 07:41:02;;;;;;;;;;;;;;;28.89;37.29;99217.22;4479327;32;33007;-61
2022/08/26 07:43:30;;;;;;;;;;;;;;;29.07;36.82;99218.94;4482559;32;32054;-61
2022/08/26 07:45:57;;;;;;;;;;;;;;;29.37;36.44;99221.38;4482583;32;35137;-61
2022/08/26 07:48:24;;;;;;;;;;;;;;;29.63;36.94;99219.94;4469528;32;33461;-60
2022/08/26 07:50:52;;;;;;;;;;;;;;;29.54;37.09;99217.81;4478046;32;34433;-60
2022/08/26 07:53:20;;;;;;;;;;;;;;;29.39;37.82;99219.22;4484722;32;32255;-61
2022/08/26 07:55:50;;;;;;;;;;;;;;;29.53;37.16;99216.97;4478015;32;34413;-61
2022/08/26 07:58:18;;;;;;;;;;;;;;;29.93;38.20;99219.53;4482629;32;32944;-62
2022/08/26 08:00:46;;;;;;;;;;;;;;;30.03;37.33;99218.84;4470231;32;34180;-62
2022/08/26 08:03:13;;;;;;;;;;;;;;;29.86;37.53;99223.59;4482611;32;33142;-60
2022/08/26 08:05:41;;;;;;;;;;;;;;;30.03;37.97;99218.84;4481102;32;33783;-61
2022/08/26 08:08:12;;;;;;;;;;;;;;;30.35;36.90;99215.44;4481934;32;33863;-60
2022/08/26 08:10:54;;;;;;;;;;;;;;;30.38;36.96;99212.16;4475596;32;32626;-61
2022/08/26 08:13:21;;;;;;;;;;;;;;;30.60;36.80;99212.97;4477417;32;33338;-61
2022/08/26 08:15:49;;;;;;;;;;;;;;;30.40;37.90;99209.97;4476044;32;33875;-61
2022/08/26 08:18:17;;;;;;;;;;;;;;;29.59;38.92;99212.38;4483019;32;34146;-61
2022/08/26 08:20:46;;;;;;;;;;;;;;;30.30;37.00;99218.94;4474162;32;34217;-61
2022/08/26 08:23:34;;;;;;;;;;;;;;;30.22;37.10;99211.13;4472631;32;31523;-62
2022/08/26 08:26:06;;;;;;;;;;;;;;;30.29;37.97;99209.00;4478508;32;34054;-61
2022/08/26 08:28:35;;;;;;;;;;;;;;;30.47;38.27;99205.09;4479465;32;33048;-62
2022/08/26 08:31:03;;;;;;;;;;;;;;;30.47;38.68;99209.78;4471119;32;34324;-61
2022/08/26 08:33:32;;;;;;;;;;;;;;;30.56;36.58;99205.47;4481372;32;34451;-62
2022/08/26 08:36:00;;;;;;;;;;;;;;;30.80;36.49;99206.88;4481754;32;34933;-63
2022/08/26 08:38:28;;;;;;;;;;;;;;;30.60;37.38;99201.94;4482329;32;34212;-61
2022/08/26 08:40:55;;;;;;;;;;;;;;;31.01;37.13;99207.94;4478439;32;33119;-61
2022/08/26 08:43:22;;;;;;;;;;;;;;;30.98;36.65;99208.44;4483319;32;32406;-63
2022/08/26 08:45:53;;;;;;;;;;;;;;;30.88;36.28;99210.25;4480967;32;32876;-61
2022/08/26 08:48:22;;;;;;;;;;;;;;;30.57;37.19;99205.22;4474157;32;33964;-62
2022/08/26 08:50:55;;;;;;;;;;;;;;;30.78;36.57;99208.22;4474581;32;32209;-62
2022/08/26 08:53:23;;;;;;;;;;;;;;;31.23;36.16;99205.06;4482516;32;34562;-62
2022/08/26 08:56:29;;;;;;;;;;;;;;;31.12;35.57;99202.50;4476034;32;35340;-61
2022/08/26 08:59:37;;;;;;;;;;;;;;;30.87;36.30;99203.91;4435212;32;34261;-61
2022/08/26 09:02:08;;;;;;;;;;;;;;;31.43;35.96;99198.06;4367182;32;34102;-62
2022/08/26 09:04:36;;;;;;;;;;;;;;;31.53;35.80;99192.63;4408903;32;33009;-62
2022/08/26 09:07:05;;;;;;;;;;;;;;;31.92;35.40;99186.84;4443515;31;34844;-60
2022/08/26 09:09:34;;;;;;;;;;;;;;;31.62;35.52;99191.06;4476736;32;34332;-61
2022/08/26 09:12:01;;;;;;;;;;;;;;;31.93;34.66;99188.50;4481419;32;34316;-62
2022/08/26 09:14:30;;;;;;;;;;;;;;;32.19;34.51;99184.75;4477828;32;34749;-63
2022/08/26 09:16:57;;;;;;;;;;;;;;;32.13;35.32;99185.81;4480633;32;33808;-61
2022/08/26 09:19:25;;;;;;;;;;;;;;;32.34;33.80;99180.38;4478829;32;35204;-62
2022/08/26 09:21:56;;;;;;;;;;;;;;;32.53;33.79;99176.06;4482236;32;33976;-62
2022/08/26 09:24:24;;;;;;;;;;;;;;;32.38;33.88;99178.72;4483280;32;34227;-62
2022/08/26 09:26:57;;;;;;;;;;;;;;;32.37;34.46;99171.53;4481244;32;32869;-62
2022/08/26 09:29:26;;;;;;;;;;;;;;;32.52;35.40;99171.63;4472966;32;35527;-63
2022/08/26 09:32:20;;;;;;;;;;;;;;;32.83;32.91;99169.72;4475477;32;33646;-61
2022/08/26 09:34:56;;;;;;;;;;;;;;;32.27;34.16;99163.19;4474524;32;34579;-63
2022/08/26 09:37:42;;;;;;;;;;;;;;;32.77;33.00;99170.81;4480634;32;34873;-61
2022/08/26 09:40:17;;;;;;;;;;;;;;;32.84;32.92;99157.56;4474900;32;34099;-62
2022/08/26 09:42:46;;;;;;;;;;;;;;;32.83;32.98;99163.37;4474588;32;35173;-62
2022/08/26 09:45:14;;;;;;;;;;;;;;;33.00;32.81;99158.41;4478222;32;31943;-62
2022/08/26 09:47:46;;;;;;;;;;;;;;;32.34;34.17;99167.38;4482086;32;33982;-62
2022/08/26 09:50:23;;;;;;;;;;;;;;;32.98;32.88;99159.81;4480859;32;35464;-63
2022/08/26 09:53:10;;;;;;;;;;;;;;;33.23;33.08;99158.97;4480544;32;34361;-62
2022/08/26 09:55:40;;;;;;;;;;;;;;;33.14;32.33;99154.00;4480607;32;32855;-62
2022/08/26 09:58:11;;;;;;;;;;;;;;;33.47;31.84;99159.25;4480154;32;34279;-62
2022/08/26 10:00:40;;;;;;;;;;;;;;;33.12;30.88;99158.16;4460212;32;32972;-62
2022/08/26 10:03:09;;;;;;;;;;;;;;;33.13;32.08;99160.66;4471013;32;34182;-63
2022/08/26 10:05:42;;;;;;;;;;;;;;;33.68;30.75;99154.50;4484975;32;32769;-63
2022/08/26 10:08:19;;;;;;;;;;;;;;;33.69;30.75;99150.66;4475728;32;33761;-62
2022/08/26 10:10:49;;;;;;;;;;;;;;;33.58;30.12;99150.66;4471530;32;35490;-63
2022/08/26 10:13:19;;;;;;;;;;;;;;;33.63;30.26;99149.81;4481032;32;34183;-63
2022/08/26 10:16:04;;;;;;;;;;;;;;;33.78;31.20;99148.97;4482431;32;34126;-62
2022/08/26 10:18:33;;;;;;;;;;;;;;;34.06;29.89;99144.72;4472529;32;33610;-62
2022/08/26 10:21:06;;;;;;;;;;;;;;;34.21;29.52;99146.59;4481910;32;35657;-61
2022/08/26 10:23:39;;;;;;;;;;;;;;;34.19;29.89;99146.03;4462097;32;33671;-63
2022/08/26 10:26:21;;;;;;;;;;;;;;;34.12;30.52;99138.03;4474949;32;33648;-62
2022/08/26 10:29:00;;;;;;;;;;;;;;;34.27;29.62;99137.97;4481733;32;35176;-62
2022/08/26 10:31:32;;;;;;;;;;;;;;;34.43;29.51;99140.66;4483185;32;35849;-64
2022/08/26 10:34:07;;;;;;;;;;;;;;;34.58;29.48;99129.50;4470293;32;32687;-63
2022/08/26 10:36:48;;;;;;;;;;;;;;;34.98;28.83;99128.34;4468779;32;33029;-64
2022/08/26 10:39:35;;;;;;;;;;;;;;;35.00;28.01;99128.09;4468435;32;35231;-64
2022/08/26 10:42:04;;;;;;;;;;;;;;;34.76;27.91;99130.75;4474560;32;33976;-61
2022/08/26 10:44:32;;;;;;;;;;;;;;;35.13;26.54;99130.22;4473069;32;33035;-64
2022/08/26 10:47:01;;;;;;;;;;;;;;;34.92;25.73;99123.13;4463457;32;33974;-63
2022/08/26 10:49:28;;;;;;;;;;;;;;;35.23;26.54;99119.00;4470927;32;34113;-62
2022/08/26 10:51:59;;;;;;;;;;;;;;;35.68;25.93;99119.69;4470871;32;32368;-63
2022/08/26 10:54:36;;;;;;;;;;;;;;;35.53;26.08;99116.25;4470916;31;33866;-62
2022/08/26 10:57:14;;;;;;;;;;;;;;;35.24;25.33;99119.81;4480886;32;31709;-65
2022/08/26 10:59:47;;;;;;;;;;;;;;;35.41;24.06;99114.66;4475388;31;33435;-63
2022/08/26 11:02:21;;;;;;;;;;;;;;;35.66;24.59;99118.31;4472446;32;34382;-63
2022/08/26 11:04:59;;;;;;;;;;;;;;;35.68;23.08;99113.31;4469182;32;34190;-63
2022/08/26 11:07:34;;;;;;;;;;;;;;;35.24;23.29;99114.25;4479749;32;33059;-64
2022/08/26 11:10:01;;;;;;;;;;;;;;;35.72;22.54;99111.56;4471318;32;33781;-62
2022/08/26 11:12:35;;;;;;;;;;;;;;;35.61;23.01;99110.88;4481571;32;34255;-64
2022/08/26 11:15:19;;;;;;;;;;;;;;;36.14;23.10;99105.22;4481633;31;34159;-64
2022/08/26 11:17:50;;;;;;;;;;;;;;;35.88;22.95;99101.09;4470027;32;32120;-63
2022/08/26 11:20:21;;;;;;;;;;;;;;;36.03;23.36;99100.94;4476007;32;35440;-63
2022/08/26 11:22:50;;;;;;;;;;;;;;;36.17;23.75;99103.81;4477384;32;33982;-63
2022/08/26 11:25:18;;;;;;;;;;;;;;;35.83;23.02;99103.97;4477278;32;34028;-64
2022/08/26 11:27:51;;;;;;;;;;;;;;;35.69;22.73;99093.50;4476178;32;33249;-64
2022/08/26 11:30:19;;;;;;;;;;;;;;;36.05;22.63;99101.47;4470429;32;35255;-64
2022/08/26 11:32:51;;;;;;;;;;;;;;;35.55;23.78;99094.53;4477661;31;34040;-63
2022/08/26 11:35:19;;;;;;;;;;;;;;;35.58;23.62;99091.16;4474383;32;35195;-63
2022/08/26 11:37:46;;;;;;;;;;;;;;;36.21;22.63;99085.38;4472646;32;33130;-64
2022/08/26 11:40:16;;;;;;;;;;;;;;;36.08;22.27;99083.31;4479042;32;33800;-65
2022/08/26 11:42:48;;;;;;;;;;;;;;;36.04;22.98;99082.28;4476882;31;33615;-64
2022/08/26 11:45:36;;;;;;;;;;;;;;;36.12;23.26;99079.66;4475557;32;33836;-64
2022/08/26 11:48:20;;;;;;;;;;;;;;;36.32;22.97;99075.75;4473806;31;34229;-63
2022/08/26 11:50:54;;;;;;;;;;;;;;;36.26;22.19;99070.56;4478523;32;33961;-64
2022/08/26 11:53:21;;;;;;;;;;;;;;;36.14;22.89;99071.81;4471329;31;33985;-65
2022/08/26 11:55:49;;;;;;;;;;;;;;;36.04;22.80;99071.13;4477810;32;33904;-66
2022/08/26 11:58:19;;;;;;;;;;;;;;;35.67;22.62;99070.72;4467199;32;33451;-64
2022/08/26 12:00:48;;;;;;;;;;;;;;;35.58;22.63;99072.50;4470878;32;34347;-65
2022/08/26 12:03:17;;;;;;;;;;;;;;;35.61;22.43;99062.75;4469366;31;33048;-62
2022/08/26 12:05:45;;;;;;;;;;;;;;;35.54;23.24;99067.81;4470611;32;35078;-63
2022/08/26 12:08:15;;;;;;;;;;;;;;;35.72;22.20;99055.09;4477026;32;33226;-64
2022/08/26 12:10:43;;;;;;;;;;;;;;;35.66;22.89;99055.13;4472961;32;32484;-64
2022/08/26 12:13:23;;;;;;;;;;;;;;;35.88;22.30;99050.97;4472472;32;32591;-65
2022/08/26 12:15:54;;;;;;;;;;;;;;;35.33;23.11;99051.31;4468915;32;33899;-64
2022/08/26 12:18:23;;;;;;;;;;;;;;;34.94;23.48;99046.66;4477765;32;32910;-63
2022/08/26 12:21:00;;;;;;;;;;;;;;;35.44;23.10;99040.87;4481094;31;35287;-63
2022/08/26 12:23:33;;;;;;;;;;;;;;;35.38;23.27;99039.31;4465645;32;33927;-63
2022/08/26 12:26:09;;;;;;;;;;;;;;;35.46;22.81;99036.69;4478863;31;34163;-63
2022/08/26 12:28:53;;;;;;;;;;;;;;;35.17;23.42;99033.94;4468756;32;33407;-63
2022/08/26 12:31:26;;;;;;;;;;;;;;;35.67;23.04;99034.53;4468229;32;34403;-62
2022/08/26 12:33:54;;;;;;;;;;;;;;;35.60;23.63;99028.50;4467228;32;33831;-64
2022/08/26 12:36:23;;;;;;;;;;;;;;;35.85;22.64;99023.72;4475646;31;33938;-63
2022/08/26 12:38:50;;;;;;;;;;;;;;;35.83;22.92;99023.22;4455648;32;31775;-63
2022/08/26 12:41:43;;;;;;;;;;;;;;;35.95;22.90;99019.97;4467246;32;35206;-64
2022/08/26 12:44:29;;;;;;;;;;;;;;;35.55;22.59;99019.41;4479077;32;34234;-63
2022/08/26 12:47:01;;;;;;;;;;;;;;;35.46;23.10;99008.88;4474356;32;34985;-64
2022/08/26 12:49:28;;;;;;;;;;;;;;;35.21;23.14;99018.31;4482383;31;33241;-63
2022/08/26 12:51:55;;;;;;;;;;;;;;;34.80;23.44;99017.03;4478668;32;33909;-62
2022/08/26 12:54:57;;;;;;;;;;;;;;;35.11;24.66;99007.31;4479469;31;34430;-62
2022/08/26 12:57:11;;;;;;;;;;;;;;;35.36;23.54;99009.00;4460896;32;32545;-64
2022/08/26 12:59:39;;;;;;;;;;;;;;;35.17;23.47;99016.44;4477778;31;33346;-64
2022/08/26 13:02:06;;;;;;;;;;;;;;;35.39;23.39;99004.78;4471302;32;33722;-63
2022/08/26 13:04:37;;;;;;;;;;;;;;;35.50;23.04;98997.97;4477508;31;34311;-64
2022/08/26 13:07:30;;;;;;;;;;;;;;;35.38;23.86;98995.63;4477732;32;35906;-64
2022/08/26 13:09:58;;;;;;;;;;;;;;;35.37;24.04;98993.94;4467533;32;32225;-63